createdAt,value
2017-10-25T00:01:13.827Z,13.00
2017-10-25T00:03:41.455Z,12.90
2017-10-25T00:06:09.126Z,12.90
2017-10-25T00:08:36.908Z,12.90
2017-10-25T00:11:04.543Z,12.90
2017-10-25T00:13:32.186Z,12.90
2017-10-25T00:15:59.798Z,13.00
2017-10-25T00:18:27.451Z,12.90
2017-10-25T00:20:55.104Z,12.90
2017-10-25T00:23:22.727Z,12.80
2017-10-25T00:25:51.140Z,12.70
2017-10-25T00:28:18.763Z,12.70
2017-10-25T00:30:46.429Z,12.70
2017-10-25T00:33:14.050Z,12.70
2017-10-25T00:35:41.674Z,12.90
2017-10-25T00:38:10.081Z,12.80
2017-10-25T00:40:37.706Z,12.80
2017-10-25T00:43:05.431Z,12.80
2017-10-25T00:45:33.815Z,12.80
2017-10-25T00:48:01.428Z,12.70
2017-10-25T00:50:29.854Z,12.70
2017-10-25T00:52:57.466Z,12.70
2017-10-25T00:55:25.163Z,12.70
2017-10-25T00:57:52.823Z,12.70
2017-10-25T01:00:20.441Z,12.80
2017-10-25T01:02:48.083Z,12.80
2017-10-25T01:05:15.814Z,12.80
2017-10-25T01:07:43.470Z,12.90
2017-10-25T01:10:11.101Z,12.80
2017-10-25T01:12:38.722Z,12.90
2017-10-25T01:15:07.284Z,12.90
2017-10-25T01:17:35.794Z,12.90
2017-10-25T01:20:03.458Z,12.90
2017-10-25T01:22:31.073Z,12.90
2017-10-25T01:24:58.685Z,13.00
2017-10-25T01:27:26.349Z,13.10
2017-10-25T01:29:54.726Z,13.00
2017-10-25T01:32:22.388Z,13.00
2017-10-25T01:34:50.008Z,13.10
2017-10-25T01:37:18.386Z,13.10
2017-10-25T01:39:46.251Z,13.10
2017-10-25T01:42:13.873Z,13.20
2017-10-25T01:44:41.518Z,13.20
2017-10-25T01:47:09.135Z,13.20
2017-10-25T01:49:36.866Z,13.20
2017-10-25T01:52:04.528Z,13.20
2017-10-25T01:54:32.157Z,13.10
2017-10-25T01:56:59.819Z,13.20
2017-10-25T01:59:27.469Z,13.30
2017-10-25T02:01:55.088Z,13.30
2017-10-25T02:04:22.802Z,13.40
2017-10-25T02:06:50.414Z,13.40
2017-10-25T02:09:18.075Z,13.40
2017-10-25T02:11:46.455Z,13.40
2017-10-25T02:14:14.067Z,13.40
2017-10-25T02:16:41.722Z,13.50
2017-10-25T02:19:09.338Z,13.50
2017-10-25T02:21:36.987Z,13.50
2017-10-25T02:24:04.601Z,13.50
2017-10-25T02:26:32.219Z,13.50
2017-10-25T02:29:00.630Z,13.60
2017-10-25T02:31:28.265Z,13.50
2017-10-25T02:33:56.087Z,13.40
2017-10-25T02:36:23.714Z,13.40
2017-10-25T02:38:52.107Z,13.30
2017-10-25T02:41:19.760Z,13.20
2017-10-25T02:43:47.383Z,13.30
2017-10-25T02:46:15.918Z,13.20
2017-10-25T02:48:43.534Z,13.10
2017-10-25T02:51:11.157Z,13.10
2017-10-25T02:53:38.804Z,13.00
2017-10-25T02:56:06.433Z,12.90
2017-10-25T02:58:34.846Z,12.80
2017-10-25T03:01:02.468Z,12.80
2017-10-25T03:03:30.086Z,12.80
2017-10-25T03:05:57.724Z,12.80
2017-10-25T03:08:25.406Z,12.80
2017-10-25T03:10:53.065Z,12.80
2017-10-25T03:13:20.684Z,12.80
2017-10-25T03:15:49.063Z,12.80
2017-10-25T03:18:16.802Z,12.70
2017-10-25T03:20:45.287Z,12.80
2017-10-25T03:23:13.007Z,12.80
2017-10-25T03:25:40.642Z,12.90
2017-10-25T03:28:09.031Z,12.80
2017-10-25T03:30:36.789Z,12.80
2017-10-25T03:33:04.406Z,12.80
2017-10-25T03:35:32.821Z,12.80
2017-10-25T03:38:00.440Z,12.80
2017-10-25T03:40:28.058Z,12.90
2017-10-25T03:42:56.107Z,12.90
2017-10-25T03:45:23.733Z,12.90
2017-10-25T03:47:51.386Z,12.90
2017-10-25T03:50:18.996Z,12.90
2017-10-25T03:52:46.609Z,12.90
2017-10-25T03:55:15.029Z,12.90
2017-10-25T03:57:42.648Z,12.80
2017-10-25T04:00:10.307Z,12.80
2017-10-25T04:02:37.923Z,12.90
2017-10-25T04:05:05.645Z,12.90
2017-10-25T04:07:33.296Z,12.90
2017-10-25T04:10:01.695Z,12.90
2017-10-25T04:12:29.356Z,12.90
2017-10-25T04:14:57.105Z,12.90
2017-10-25T04:17:24.787Z,12.90
2017-10-25T04:19:52.430Z,12.90
2017-10-25T04:22:20.058Z,13.00
2017-10-25T04:24:47.720Z,13.00
2017-10-25T04:27:15.406Z,12.90
2017-10-25T04:29:43.803Z,13.00
2017-10-25T04:32:11.442Z,12.90
2017-10-25T04:34:39.076Z,13.00
2017-10-25T04:37:06.972Z,13.00
2017-10-25T04:39:34.583Z,13.00
2017-10-25T04:42:02.199Z,13.00
2017-10-25T04:44:30.623Z,13.10
2017-10-25T04:46:58.235Z,13.00
2017-10-25T04:49:27.173Z,13.10
2017-10-25T04:51:54.804Z,13.10
2017-10-25T04:54:24.398Z,13.10
2017-10-25T04:56:52.052Z,13.20
2017-10-25T04:59:19.672Z,13.20
2017-10-25T05:01:47.328Z,13.10
2017-10-25T05:04:14.953Z,13.10
2017-10-25T05:06:42.566Z,13.10
2017-10-25T05:09:10.218Z,13.10
2017-10-25T05:11:37.873Z,13.10
2017-10-25T05:14:05.572Z,13.10
2017-10-25T05:16:33.191Z,13.20
2017-10-25T05:19:00.816Z,13.20
2017-10-25T05:21:28.497Z,13.20
2017-10-25T05:23:56.302Z,13.20
2017-10-25T05:26:23.950Z,13.20
2017-10-25T05:28:51.572Z,13.20
2017-10-25T05:31:19.202Z,13.20
2017-10-25T05:33:46.895Z,13.20
2017-10-25T05:36:14.507Z,13.20
2017-10-25T05:38:42.932Z,13.20
2017-10-25T05:41:10.566Z,13.20
2017-10-25T05:43:38.189Z,13.30
2017-10-25T05:46:06.610Z,13.30
2017-10-25T05:48:34.238Z,13.30
2017-10-25T05:51:01.911Z,13.30
2017-10-25T05:53:29.559Z,13.40
2017-10-25T05:55:57.215Z,13.40
2017-10-25T05:58:24.857Z,13.40
2017-10-25T06:00:52.474Z,13.40
2017-10-25T06:03:20.160Z,13.40
2017-10-25T06:05:47.774Z,13.30
2017-10-25T06:08:15.391Z,13.30
2017-10-25T06:10:43.037Z,13.40
2017-10-25T06:13:10.672Z,13.40
2017-10-25T06:15:38.325Z,13.40
2017-10-25T06:18:06.320Z,13.50
2017-10-25T06:20:33.935Z,13.50
2017-10-25T06:23:01.574Z,13.50
2017-10-25T06:25:29.187Z,13.50
2017-10-25T06:27:56.978Z,13.50
2017-10-25T06:30:24.606Z,13.50
2017-10-25T06:32:52.300Z,13.50
2017-10-25T06:35:19.938Z,13.60
2017-10-25T06:37:47.564Z,13.60
2017-10-25T06:40:15.262Z,13.60
2017-10-25T06:42:43.683Z,13.70
2017-10-25T06:45:11.298Z,13.60
2017-10-25T06:47:39.706Z,13.70
2017-10-25T06:50:07.335Z,13.70
2017-10-25T06:52:34.980Z,13.80
2017-10-25T06:55:02.590Z,13.80
2017-10-25T06:57:30.986Z,13.90
2017-10-25T06:59:58.647Z,13.90
2017-10-25T07:02:26.302Z,14.00
2017-10-25T07:04:53.954Z,14.00
2017-10-25T07:07:21.609Z,14.10
2017-10-25T07:09:49.794Z,14.10
2017-10-25T07:12:17.467Z,14.10
2017-10-25T07:14:45.112Z,14.20
2017-10-25T07:17:12.806Z,14.20
2017-10-25T07:19:40.442Z,14.30
2017-10-25T07:22:08.062Z,14.40
2017-10-25T07:24:35.794Z,14.40
2017-10-25T07:27:03.419Z,14.50
2017-10-25T07:29:31.083Z,14.60
2017-10-25T07:31:59.469Z,14.40
2017-10-25T07:34:27.276Z,14.30
2017-10-25T07:36:54.926Z,14.40
2017-10-25T07:39:22.542Z,14.40
2017-10-25T07:41:50.195Z,14.40
2017-10-25T07:44:17.818Z,14.50
2017-10-25T07:46:45.438Z,14.40
2017-10-25T07:49:13.090Z,14.40
2017-10-25T07:51:40.710Z,14.50
2017-10-25T07:54:09.122Z,14.60
2017-10-25T07:56:36.843Z,14.50
2017-10-25T07:59:04.458Z,14.70
2017-10-25T08:01:32.098Z,14.70
2017-10-25T08:03:59.729Z,14.70
2017-10-25T08:06:27.382Z,14.60
2017-10-25T08:08:55.007Z,14.70
2017-10-25T08:11:22.717Z,14.70
2017-10-25T08:13:51.170Z,14.60
2017-10-25T08:16:19.557Z,14.60
2017-10-25T08:18:47.260Z,14.60
2017-10-25T08:21:14.879Z,14.70
2017-10-25T08:23:42.805Z,14.80
2017-10-25T08:26:10.515Z,14.80
2017-10-25T08:28:38.139Z,14.90
2017-10-25T08:31:05.847Z,15.00
2017-10-25T08:33:33.494Z,15.00
2017-10-25T08:36:01.111Z,15.10
2017-10-25T08:38:29.517Z,15.10
2017-10-25T08:40:57.237Z,15.00
2017-10-25T08:43:24.914Z,15.10
2017-10-25T08:45:52.540Z,15.10
2017-10-25T08:48:20.198Z,15.10
2017-10-25T08:50:47.855Z,15.10
2017-10-25T08:53:15.474Z,15.10
2017-10-25T08:55:43.139Z,15.10
2017-10-25T08:58:11.118Z,15.10
2017-10-25T09:00:39.091Z,15.10
2017-10-25T09:03:06.852Z,15.20
2017-10-25T09:05:35.283Z,15.40
2017-10-25T09:08:02.939Z,15.30
2017-10-25T09:10:30.576Z,15.40
2017-10-25T09:12:58.190Z,15.50
2017-10-25T09:15:25.868Z,15.70
2017-10-25T09:17:53.494Z,15.90
2017-10-25T09:20:21.157Z,16.10
2017-10-25T09:22:48.789Z,16.40
2017-10-25T09:25:16.434Z,16.60
2017-10-25T09:27:44.826Z,16.70
2017-10-25T09:30:12.419Z,16.60
2017-10-25T09:32:40.087Z,16.70
2017-10-25T09:35:07.739Z,16.60
2017-10-25T09:37:35.360Z,16.60
2017-10-25T09:40:03.002Z,16.50
2017-10-25T09:42:31.402Z,16.50
2017-10-25T09:44:59.070Z,16.40
2017-10-25T09:47:26.757Z,16.60
2017-10-25T09:49:55.370Z,17.00
2017-10-25T09:52:23.014Z,16.90
2017-10-25T09:54:50.610Z,17.20
2017-10-25T09:57:18.251Z,17.10
2017-10-25T09:59:45.886Z,17.30
2017-10-25T10:02:13.486Z,17.30
2017-10-25T10:04:41.876Z,17.10
2017-10-25T10:07:09.486Z,17.00
2017-10-25T10:09:37.248Z,17.10
2017-10-25T10:12:05.733Z,17.30
2017-10-25T10:14:33.797Z,17.20
2017-10-25T10:17:01.420Z,17.40
2017-10-25T10:19:29.022Z,17.50
2017-10-25T10:21:56.658Z,17.40
2017-10-25T10:24:24.260Z,17.50
2017-10-25T10:26:51.872Z,17.60
2017-10-25T10:29:19.510Z,17.60
2017-10-25T10:31:47.183Z,17.70
2017-10-25T10:34:15.675Z,17.80
2017-10-25T10:36:43.276Z,17.70
2017-10-25T10:39:10.878Z,17.80
2017-10-25T10:41:38.502Z,17.80
2017-10-25T10:44:06.101Z,17.70
2017-10-25T10:46:33.727Z,17.70
2017-10-25T10:49:01.335Z,17.60
2017-10-25T10:51:29.717Z,17.60
2017-10-25T10:53:57.339Z,17.50
2017-10-25T10:56:25.969Z,17.50
2017-10-25T10:58:53.594Z,17.40
2017-10-25T11:01:21.203Z,17.40
2017-10-25T11:03:48.912Z,17.40
2017-10-25T11:06:16.556Z,17.40
2017-10-25T11:08:44.164Z,17.50
2017-10-25T11:11:11.826Z,17.30
2017-10-25T11:13:39.446Z,17.40
2017-10-25T11:16:07.219Z,17.40
2017-10-25T11:18:34.835Z,17.50
2017-10-25T11:21:03.194Z,17.50
2017-10-25T11:23:31.592Z,17.50
2017-10-25T11:25:59.182Z,17.40
2017-10-25T11:28:26.835Z,17.40
2017-10-25T11:30:55.280Z,17.30
2017-10-25T11:33:22.878Z,17.20
2017-10-25T11:35:50.534Z,17.30
2017-10-25T11:38:18.150Z,17.30
2017-10-25T11:40:46.515Z,17.50
2017-10-25T11:43:14.906Z,17.50
2017-10-25T11:45:42.500Z,17.50
2017-10-25T11:48:10.123Z,17.60
2017-10-25T11:50:37.741Z,17.50
2017-10-25T11:53:05.376Z,17.60
2017-10-25T11:55:33.002Z,17.60
2017-10-25T11:58:01.358Z,17.60
2017-10-25T12:00:29.762Z,17.80
2017-10-25T12:02:57.366Z,17.70
2017-10-25T12:05:24.963Z,17.90
2017-10-25T12:07:52.596Z,18.20
2017-10-25T12:10:20.210Z,18.10
2017-10-25T12:12:47.937Z,18.10
2017-10-25T12:15:15.554Z,18.10
2017-10-25T12:17:43.150Z,17.90
2017-10-25T12:20:11.540Z,17.80
2017-10-25T12:22:39.149Z,17.70
2017-10-25T12:25:06.908Z,17.80
2017-10-25T12:27:35.271Z,17.60
2017-10-25T12:30:03.650Z,17.60
2017-10-25T12:32:32.185Z,17.50
2017-10-25T12:34:59.793Z,17.40
2017-10-25T12:37:27.414Z,17.50
2017-10-25T12:39:55.840Z,17.50
2017-10-25T12:42:23.446Z,17.50
2017-10-25T12:44:51.067Z,17.50
2017-10-25T12:47:19.430Z,17.60
2017-10-25T12:49:47.826Z,17.60
2017-10-25T12:52:15.434Z,17.50
2017-10-25T12:54:43.044Z,17.60
2017-10-25T12:57:10.656Z,17.60
2017-10-25T12:59:38.301Z,17.50
2017-10-25T13:02:06.042Z,17.40
2017-10-25T13:04:33.668Z,17.40
2017-10-25T13:07:02.032Z,17.40
2017-10-25T13:09:30.546Z,17.40
2017-10-25T13:12:08.473Z,17.40
2017-10-25T13:17:35.012Z,18.50
2017-10-25T13:20:03.394Z,18.70
2017-10-25T13:22:30.981Z,18.60
2017-10-25T13:24:58.626Z,18.80
2017-10-25T13:27:26.258Z,18.30
2017-10-25T13:29:53.854Z,18.30
2017-10-25T13:32:22.239Z,18.60
2017-10-25T13:34:49.843Z,18.50
2017-10-25T13:37:17.476Z,18.60
2017-10-25T13:39:45.082Z,18.50
2017-10-25T13:42:12.822Z,18.50
2017-10-25T13:44:40.443Z,18.60
2017-10-25T13:47:08.808Z,18.90
2017-10-25T13:49:37.235Z,18.60
2017-10-25T13:52:04.846Z,18.50
2017-10-25T13:54:32.439Z,18.50
2017-10-25T13:57:00.053Z,18.40
2017-10-25T13:59:27.657Z,18.20
2017-10-25T14:01:55.294Z,18.00
2017-10-25T14:04:23.670Z,17.90
2017-10-25T14:06:52.042Z,17.90
2017-10-25T14:09:19.662Z,17.80
2017-10-25T14:11:48.041Z,17.70
2017-10-25T14:14:16.578Z,17.70
2017-10-25T14:16:44.170Z,17.70
2017-10-25T14:19:11.766Z,17.50
2017-10-25T14:21:39.394Z,17.60
2017-10-25T14:24:07.053Z,17.60
2017-10-25T14:26:46.482Z,17.60
2017-10-25T14:29:14.094Z,17.60
2017-10-25T14:31:41.743Z,17.70
2017-10-25T14:34:09.345Z,17.60
2017-10-25T14:36:37.141Z,17.50
2017-10-25T14:39:04.787Z,17.30
2017-10-25T14:41:42.014Z,17.30
2017-10-25T14:44:09.638Z,17.20
2017-10-25T14:46:38.542Z,17.20
2017-10-25T14:49:06.287Z,17.20
2017-10-25T14:51:33.906Z,17.10
2017-10-25T14:54:01.571Z,17.10
2017-10-25T14:56:29.292Z,17.10
2017-10-25T14:58:56.910Z,17.00
2017-10-25T15:01:24.550Z,17.00
2017-10-25T15:03:52.167Z,17.00
2017-10-25T15:06:20.570Z,17.00
2017-10-25T15:08:48.193Z,16.90
2017-10-25T15:11:15.822Z,16.90
2017-10-25T15:13:43.473Z,16.80
2017-10-25T15:16:11.095Z,16.80
2017-10-25T15:18:39.521Z,16.80
2017-10-25T15:21:07.162Z,16.70
2017-10-25T15:23:34.785Z,16.80
2017-10-25T15:26:02.425Z,16.70
2017-10-25T15:28:30.045Z,16.60
2017-10-25T15:30:58.487Z,16.60
2017-10-25T15:33:26.203Z,16.60
2017-10-25T15:35:53.813Z,16.60
2017-10-25T15:38:22.222Z,16.60
2017-10-25T15:40:49.864Z,16.50
2017-10-25T15:43:17.538Z,16.60
2017-10-25T15:45:45.154Z,16.60
2017-10-25T15:48:12.908Z,16.60
2017-10-25T15:50:40.559Z,16.60
2017-10-25T15:53:08.182Z,16.50
2017-10-25T15:55:35.905Z,16.40
2017-10-25T15:58:03.527Z,16.40
2017-10-25T16:00:31.146Z,16.30
2017-10-25T16:02:58.781Z,16.20
2017-10-25T16:05:26.403Z,16.20
2017-10-25T16:07:54.058Z,16.20
2017-10-25T16:10:21.684Z,16.20
2017-10-25T16:12:50.082Z,16.10
2017-10-25T16:15:17.726Z,16.10
2017-10-25T16:17:45.349Z,16.10
2017-10-25T16:20:13.006Z,16.10
2017-10-25T16:22:40.634Z,16.20
2017-10-25T16:25:08.272Z,16.10
2017-10-25T16:27:36.694Z,16.20
2017-10-25T16:30:04.357Z,16.20
2017-10-25T16:32:32.036Z,16.20
2017-10-25T16:34:59.663Z,16.20
2017-10-25T16:37:28.083Z,16.20
2017-10-25T16:39:56.119Z,16.20
2017-10-25T16:42:23.766Z,16.20
2017-10-25T16:44:51.513Z,16.20
2017-10-25T16:47:19.199Z,16.10
2017-10-25T16:49:46.941Z,16.10
2017-10-25T16:52:14.626Z,16.10
2017-10-25T16:54:43.060Z,16.00
2017-10-25T16:57:10.742Z,16.00
2017-10-25T16:59:38.397Z,16.00
2017-10-25T17:02:06.904Z,16.00
2017-10-25T17:04:34.561Z,16.00
2017-10-25T17:07:02.219Z,16.00
2017-10-25T17:09:29.886Z,16.00
2017-10-25T17:11:58.095Z,16.00
2017-10-25T17:14:25.820Z,16.00
2017-10-25T17:16:55.277Z,16.00
2017-10-25T17:19:23.708Z,16.00
2017-10-25T17:21:52.138Z,15.90
2017-10-25T17:24:20.563Z,16.00
2017-10-25T17:26:49.022Z,15.90
2017-10-25T17:29:16.802Z,16.00
2017-10-25T17:31:44.439Z,16.00
2017-10-25T17:34:12.090Z,16.00
2017-10-25T17:36:39.719Z,16.00
2017-10-25T17:39:07.414Z,16.00
2017-10-25T17:41:35.136Z,16.00
2017-10-25T17:44:03.098Z,15.90
2017-10-25T17:46:30.772Z,15.90
2017-10-25T17:48:58.411Z,15.90
2017-10-25T17:51:26.583Z,15.90
2017-10-25T17:53:54.272Z,15.90
2017-10-25T17:56:21.901Z,15.90
2017-10-25T17:58:49.585Z,15.80
2017-10-25T18:01:18.048Z,15.90
2017-10-25T18:03:45.932Z,15.90
2017-10-25T18:06:13.936Z,15.80
2017-10-25T18:08:41.746Z,15.80
2017-10-25T18:11:09.451Z,15.80
2017-10-25T18:13:37.862Z,15.90
2017-10-25T18:16:05.587Z,15.80
2017-10-25T18:18:33.944Z,15.80
2017-10-25T18:21:06.502Z,15.80
2017-10-25T18:23:37.670Z,15.80
2017-10-25T18:26:05.812Z,15.70
2017-10-25T18:28:33.439Z,15.80
2017-10-25T18:31:01.867Z,15.60
2017-10-25T18:33:29.524Z,15.50
2017-10-25T18:35:57.321Z,15.50
2017-10-25T18:38:25.050Z,15.40
2017-10-25T18:40:52.711Z,15.40
2017-10-25T18:43:20.368Z,15.50
2017-10-25T18:45:48.031Z,15.40
2017-10-25T18:48:15.717Z,15.50
2017-10-25T18:50:43.354Z,15.50
2017-10-25T18:53:11.149Z,15.40
2017-10-25T18:55:38.842Z,15.40
2017-10-25T18:58:06.472Z,15.40
2017-10-25T19:00:34.124Z,15.40
2017-10-25T19:03:01.764Z,15.40
2017-10-25T19:05:29.420Z,15.30
2017-10-25T19:07:57.115Z,15.30
2017-10-25T19:10:26.033Z,15.40
2017-10-25T19:12:53.730Z,15.40
2017-10-25T19:15:22.122Z,15.40
2017-10-25T19:17:49.755Z,15.40
2017-10-25T19:20:18.168Z,15.40
2017-10-25T19:22:45.971Z,15.30
2017-10-25T19:25:13.630Z,15.30
2017-10-25T19:27:41.263Z,15.30
2017-10-25T19:30:08.903Z,15.30
2017-10-25T19:32:37.326Z,15.20
2017-10-25T19:35:07.101Z,15.20
2017-10-25T19:37:34.774Z,15.20
2017-10-25T19:40:02.466Z,15.20
2017-10-25T19:42:30.266Z,15.10
2017-10-25T19:44:58.158Z,15.10
2017-10-25T19:47:25.915Z,15.10
2017-10-25T19:49:53.580Z,14.90
2017-10-25T19:52:21.258Z,14.90
2017-10-25T19:54:48.934Z,14.90
2017-10-25T19:57:16.578Z,14.90
2017-10-25T19:59:44.198Z,14.90
2017-10-25T20:02:11.851Z,14.80
2017-10-25T20:04:39.588Z,14.70
2017-10-25T20:07:07.306Z,14.80
2017-10-25T20:09:34.983Z,14.80
2017-10-25T20:12:02.609Z,14.80
2017-10-25T20:14:30.329Z,14.70
2017-10-25T20:16:58.753Z,14.70
2017-10-25T20:19:26.416Z,14.60
2017-10-25T20:21:54.121Z,14.70
2017-10-25T20:24:21.806Z,14.70
2017-10-25T20:26:49.480Z,14.70
2017-10-25T20:29:17.898Z,14.70
2017-10-25T20:31:45.620Z,14.60
2017-10-25T20:34:13.319Z,14.70
2017-10-25T20:36:40.978Z,14.70
2017-10-25T20:39:08.639Z,14.70
2017-10-25T20:41:37.070Z,14.70
2017-10-25T20:44:04.938Z,14.70
2017-10-25T20:46:32.587Z,14.70
2017-10-25T20:49:00.441Z,14.70
2017-10-25T20:51:28.050Z,14.70
2017-10-25T20:53:55.898Z,14.60
2017-10-25T20:56:23.509Z,14.60
2017-10-25T20:58:51.168Z,14.60
2017-10-25T21:01:18.798Z,14.60
2017-10-25T21:03:47.242Z,14.60
2017-10-25T21:06:14.882Z,14.50
2017-10-25T21:08:42.498Z,14.60
2017-10-25T21:11:10.154Z,14.60
2017-10-25T21:13:37.774Z,14.60
2017-10-25T21:16:05.401Z,14.60
2017-10-25T21:18:33.052Z,14.60
2017-10-25T21:21:00.678Z,14.60
2017-10-25T21:23:29.098Z,14.60
2017-10-25T21:25:56.795Z,14.60
2017-10-25T21:28:25.206Z,14.60
2017-10-25T21:30:52.961Z,14.50
2017-10-25T21:33:20.578Z,14.60
2017-10-25T21:35:48.228Z,14.50
2017-10-25T21:38:15.858Z,14.60
2017-10-25T21:40:44.238Z,14.50
2017-10-25T21:43:11.893Z,14.50
2017-10-25T21:45:39.493Z,14.60
2017-10-25T21:48:07.277Z,14.60
2017-10-25T21:50:34.890Z,14.50
2017-10-25T21:53:02.506Z,14.50
2017-10-25T21:55:30.159Z,14.40
2017-10-25T21:57:57.777Z,14.50
2017-10-25T22:00:25.439Z,14.40
2017-10-25T22:02:53.054Z,14.40
2017-10-25T22:05:20.678Z,14.40
2017-10-25T22:07:49.078Z,14.30
2017-10-25T22:10:16.699Z,14.20
2017-10-25T22:12:45.385Z,14.20
2017-10-25T22:15:13.004Z,14.20
2017-10-25T22:17:41.402Z,14.20
2017-10-25T22:20:09.058Z,14.10
2017-10-25T22:22:36.675Z,14.20
2017-10-25T22:25:04.305Z,14.20
2017-10-25T22:27:32.710Z,14.20
2017-10-25T22:30:00.607Z,14.10
2017-10-25T22:32:28.261Z,14.20
2017-10-25T22:34:56.882Z,14.20
2017-10-25T22:37:24.503Z,14.20
2017-10-25T22:39:52.153Z,14.20
2017-10-25T22:42:19.797Z,14.20
2017-10-25T22:44:47.454Z,14.10
2017-10-25T22:47:15.106Z,14.00
2017-10-25T22:49:42.908Z,14.00
2017-10-25T22:52:10.553Z,14.00
2017-10-25T22:54:38.173Z,14.00
2017-10-25T22:57:05.862Z,14.00
2017-10-25T22:59:33.724Z,13.90
2017-10-25T23:02:01.362Z,13.90
2017-10-25T23:04:29.792Z,13.70
2017-10-25T23:06:57.410Z,13.70
2017-10-25T23:09:25.474Z,13.70
2017-10-25T23:11:53.093Z,13.70
2017-10-25T23:14:20.720Z,13.60
2017-10-25T23:16:49.146Z,13.60
2017-10-25T23:19:16.866Z,13.60
2017-10-25T23:21:44.527Z,13.50
2017-10-25T23:24:12.152Z,13.40
2017-10-25T23:26:39.771Z,13.30
2017-10-25T23:29:08.181Z,13.20
2017-10-25T23:31:35.829Z,13.20
2017-10-25T23:34:03.493Z,13.20
2017-10-25T23:36:31.162Z,13.10
2017-10-25T23:38:58.781Z,13.10
2017-10-25T23:41:26.434Z,13.00
2017-10-25T23:43:54.071Z,13.00
2017-10-25T23:46:22.551Z,12.80
2017-10-25T23:48:50.183Z,12.80
2017-10-25T23:51:17.803Z,12.80
2017-10-25T23:53:45.449Z,12.70
2017-10-25T23:56:13.067Z,12.70
2017-10-25T23:58:41.491Z,12.70
